sensor_id;sensor_type;location;lat;lon;timestamp;P1;durP1;ratioP1;P2;durP2;ratioP2
73823;SDS011;62154;54.914;73.444;2023-05-10T00:02:08;46.78;;;25.80;;
73823;SDS011;62154;54.914;73.444;2023-05-10T00:04:35;49.03;;;25.20;;
73823;SDS011;62154;54.914;73.444;2023-05-10T00:07:02;49.17;;;25.23;;
73823;SDS011;62154;54.914;73.444;2023-05-10T00:09:28;43.40;;;23.75;;
73823;SDS011;62154;54.914;73.444;2023-05-10T00:11:55;51.28;;;25.27;;
73823;SDS011;62154;54.914;73.444;2023-05-10T00:14:24;42.13;;;24.95;;
73823;SDS011;62154;54.914;73.444;2023-05-10T00:16:51;45.22;;;24.70;;
73823;SDS011;62154;54.914;73.444;2023-05-10T00:19:18;41.70;;;24.40;;
73823;SDS011;62154;54.914;73.444;2023-05-10T00:21:45;48.15;;;24.17;;
73823;SDS011;62154;54.914;73.444;2023-05-10T00:24:13;45.92;;;24.85;;
73823;SDS011;62154;54.914;73.444;2023-05-10T00:26:40;43.85;;;23.92;;
73823;SDS011;62154;54.914;73.444;2023-05-10T00:29:09;41.20;;;23.65;;
73823;SDS011;62154;54.914;73.444;2023-05-10T00:31:36;38.13;;;22.30;;
73823;SDS011;62154;54.914;73.444;2023-05-10T00:34:03;44.92;;;24.73;;
73823;SDS011;62154;54.914;73.444;2023-05-10T00:36:30;38.96;;;22.67;;
73823;SDS011;62154;54.914;73.444;2023-05-10T00:38:57;44.45;;;24.15;;
73823;SDS011;62154;54.914;73.444;2023-05-10T00:41:24;39.50;;;24.15;;
73823;SDS011;62154;54.914;73.444;2023-05-10T00:43:51;39.63;;;23.30;;
73823;SDS011;62154;54.914;73.444;2023-05-10T00:46:18;40.08;;;22.80;;
73823;SDS011;62154;54.914;73.444;2023-05-10T00:48:48;42.25;;;23.02;;
73823;SDS011;62154;54.914;73.444;2023-05-10T00:51:15;52.28;;;31.33;;
73823;SDS011;62154;54.914;73.444;2023-05-10T00:53:42;43.67;;;23.95;;
73823;SDS011;62154;54.914;73.444;2023-05-10T00:56:11;38.88;;;23.40;;
73823;SDS011;62154;54.914;73.444;2023-05-10T00:58:39;43.58;;;22.08;;
73823;SDS011;62154;54.914;73.444;2023-05-10T01:01:06;42.53;;;21.95;;
73823;SDS011;62154;54.914;73.444;2023-05-10T01:03:34;41.72;;;21.75;;
73823;SDS011;62154;54.914;73.444;2023-05-10T01:06:02;43.80;;;23.75;;
73823;SDS011;62154;54.914;73.444;2023-05-10T01:08:29;45.83;;;24.77;;
73823;SDS011;62154;54.914;73.444;2023-05-10T01:10:57;58.22;;;29.58;;
73823;SDS011;62154;54.914;73.444;2023-05-10T01:13:33;66.05;;;32.00;;
73823;SDS011;62154;54.914;73.444;2023-05-10T01:16:02;73.15;;;31.77;;
73823;SDS011;62154;54.914;73.444;2023-05-10T01:18:29;72.63;;;31.63;;
73823;SDS011;62154;54.914;73.444;2023-05-10T01:34:25;31.13;;;16.73;;
73823;SDS011;62154;54.914;73.444;2023-05-10T01:42:11;30.48;;;14.57;;
73823;SDS011;62154;54.914;73.444;2023-05-10T01:44:42;28.30;;;15.98;;
73823;SDS011;62154;54.914;73.444;2023-05-10T01:47:14;44.40;;;22.23;;
73823;SDS011;62154;54.914;73.444;2023-05-10T01:49:52;47.25;;;23.05;;
73823;SDS011;62154;54.914;73.444;2023-05-10T01:52:22;48.28;;;22.80;;
73823;SDS011;62154;54.914;73.444;2023-05-10T01:54:53;35.53;;;18.30;;
73823;SDS011;62154;54.914;73.444;2023-05-10T01:57:22;34.77;;;18.87;;
73823;SDS011;62154;54.914;73.444;2023-05-10T01:59:51;26.52;;;15.55;;
73823;SDS011;62154;54.914;73.444;2023-05-10T02:02:20;29.58;;;14.73;;
73823;SDS011;62154;54.914;73.444;2023-05-10T02:04:47;26.60;;;16.30;;
73823;SDS011;62154;54.914;73.444;2023-05-10T02:07:16;41.30;;;16.46;;
73823;SDS011;62154;54.914;73.444;2023-05-10T02:09:44;35.40;;;17.90;;
73823;SDS011;62154;54.914;73.444;2023-05-10T02:12:14;40.17;;;19.00;;
73823;SDS011;62154;54.914;73.444;2023-05-10T02:14:42;45.47;;;20.15;;
73823;SDS011;62154;54.914;73.444;2023-05-10T02:17:09;38.47;;;20.15;;
73823;SDS011;62154;54.914;73.444;2023-05-10T02:19:37;40.80;;;19.13;;
73823;SDS011;62154;54.914;73.444;2023-05-10T02:22:05;34.45;;;19.77;;
73823;SDS011;62154;54.914;73.444;2023-05-10T02:24:33;40.03;;;20.95;;
73823;SDS011;62154;54.914;73.444;2023-05-10T02:27:02;32.97;;;18.70;;
73823;SDS011;62154;54.914;73.444;2023-05-10T02:29:31;35.63;;;18.80;;
73823;SDS011;62154;54.914;73.444;2023-05-10T02:31:58;36.40;;;18.77;;
73823;SDS011;62154;54.914;73.444;2023-05-10T02:34:26;36.53;;;21.90;;
73823;SDS011;62154;54.914;73.444;2023-05-10T02:36:54;41.20;;;22.70;;
73823;SDS011;62154;54.914;73.444;2023-05-10T02:39:22;40.85;;;21.95;;
73823;SDS011;62154;54.914;73.444;2023-05-10T02:41:50;42.50;;;23.25;;
73823;SDS011;62154;54.914;73.444;2023-05-10T02:44:19;52.05;;;26.60;;
73823;SDS011;62154;54.914;73.444;2023-05-10T02:46:47;40.72;;;23.10;;
73823;SDS011;62154;54.914;73.444;2023-05-10T02:49:14;37.33;;;22.10;;
73823;SDS011;62154;54.914;73.444;2023-05-10T02:51:44;47.83;;;25.42;;
73823;SDS011;62154;54.914;73.444;2023-05-10T02:54:20;42.53;;;24.52;;
73823;SDS011;62154;54.914;73.444;2023-05-10T02:56:52;35.95;;;19.90;;
73823;SDS011;62154;54.914;73.444;2023-05-10T02:59:20;32.85;;;18.95;;
73823;SDS011;62154;54.914;73.444;2023-05-10T03:01:47;25.73;;;16.20;;
73823;SDS011;62154;54.914;73.444;2023-05-10T03:04:14;32.75;;;17.40;;
73823;SDS011;62154;54.914;73.444;2023-05-10T03:06:49;29.40;;;15.97;;
73823;SDS011;62154;54.914;73.444;2023-05-10T03:09:17;33.13;;;16.50;;
73823;SDS011;62154;54.914;73.444;2023-05-10T03:11:50;29.27;;;17.45;;
73823;SDS011;62154;54.914;73.444;2023-05-10T03:19:53;27.45;;;15.93;;
73823;SDS011;62154;54.914;73.444;2023-05-10T03:22:37;27.85;;;16.13;;
73823;SDS011;62154;54.914;73.444;2023-05-10T03:25:05;33.17;;;16.85;;
73823;SDS011;62154;54.914;73.444;2023-05-10T03:27:35;29.58;;;16.55;;
73823;SDS011;62154;54.914;73.444;2023-05-10T03:30:03;32.17;;;17.17;;
73823;SDS011;62154;54.914;73.444;2023-05-10T03:32:33;27.30;;;16.10;;
73823;SDS011;62154;54.914;73.444;2023-05-10T03:35:06;25.52;;;15.52;;
73823;SDS011;62154;54.914;73.444;2023-05-10T03:37:33;25.08;;;16.17;;
73823;SDS011;62154;54.914;73.444;2023-05-10T03:40:00;25.75;;;15.45;;
73823;SDS011;62154;54.914;73.444;2023-05-10T03:42:29;26.05;;;16.75;;
73823;SDS011;62154;54.914;73.444;2023-05-10T03:44:56;26.88;;;16.67;;
73823;SDS011;62154;54.914;73.444;2023-05-10T03:47:23;25.70;;;17.30;;
73823;SDS011;62154;54.914;73.444;2023-05-10T03:49:50;25.70;;;16.48;;
73823;SDS011;62154;54.914;73.444;2023-05-10T03:52:17;27.70;;;15.35;;
73823;SDS011;62154;54.914;73.444;2023-05-10T03:54:45;23.67;;;14.63;;
73823;SDS011;62154;54.914;73.444;2023-05-10T03:57:11;26.80;;;15.20;;
73823;SDS011;62154;54.914;73.444;2023-05-10T03:59:39;27.95;;;15.65;;
73823;SDS011;62154;54.914;73.444;2023-05-10T04:02:06;24.83;;;15.02;;
73823;SDS011;62154;54.914;73.444;2023-05-10T04:04:34;28.17;;;15.57;;
73823;SDS011;62154;54.914;73.444;2023-05-10T04:07:01;28.35;;;20.00;;
73823;SDS011;62154;54.914;73.444;2023-05-10T04:09:28;23.98;;;13.90;;
73823;SDS011;62154;54.914;73.444;2023-05-10T04:11:58;25.63;;;14.05;;
73823;SDS011;62154;54.914;73.444;2023-05-10T04:14:26;23.15;;;13.73;;
73823;SDS011;62154;54.914;73.444;2023-05-10T04:16:53;24.95;;;12.80;;
73823;SDS011;62154;54.914;73.444;2023-05-10T04:19:21;20.27;;;12.23;;
73823;SDS011;62154;54.914;73.444;2023-05-10T04:21:47;24.17;;;13.93;;
73823;SDS011;62154;54.914;73.444;2023-05-10T04:24:14;28.13;;;15.75;;
73823;SDS011;62154;54.914;73.444;2023-05-10T04:26:42;27.88;;;15.88;;
73823;SDS011;62154;54.914;73.444;2023-05-10T04:29:09;20.90;;;14.25;;
73823;SDS011;62154;54.914;73.444;2023-05-10T04:31:37;24.98;;;15.95;;
73823;SDS011;62154;54.914;73.444;2023-05-10T04:34:04;26.20;;;14.57;;
73823;SDS011;62154;54.914;73.444;2023-05-10T04:36:31;21.77;;;13.32;;
73823;SDS011;62154;54.914;73.444;2023-05-10T04:39:03;23.70;;;14.03;;
73823;SDS011;62154;54.914;73.444;2023-05-10T04:41:30;23.58;;;14.40;;
73823;SDS011;62154;54.914;73.444;2023-05-10T04:43:57;24.40;;;14.65;;
73823;SDS011;62154;54.914;73.444;2023-05-10T04:46:24;25.42;;;15.82;;
73823;SDS011;62154;54.914;73.444;2023-05-10T04:48:52;25.90;;;14.83;;
73823;SDS011;62154;54.914;73.444;2023-05-10T04:51:19;25.05;;;13.52;;
73823;SDS011;62154;54.914;73.444;2023-05-10T04:53:47;25.35;;;14.75;;
73823;SDS011;62154;54.914;73.444;2023-05-10T04:56:14;22.85;;;13.00;;
73823;SDS011;62154;54.914;73.444;2023-05-10T04:58:41;22.42;;;13.25;;
73823;SDS011;62154;54.914;73.444;2023-05-10T05:01:08;22.02;;;13.70;;
73823;SDS011;62154;54.914;73.444;2023-05-10T05:03:36;22.95;;;12.73;;
73823;SDS011;62154;54.914;73.444;2023-05-10T05:06:03;21.63;;;12.90;;
73823;SDS011;62154;54.914;73.444;2023-05-10T05:08:30;20.38;;;12.93;;
73823;SDS011;62154;54.914;73.444;2023-05-10T05:10:57;33.65;;;12.38;;
73823;SDS011;62154;54.914;73.444;2023-05-10T05:13:26;29.15;;;12.40;;
73823;SDS011;62154;54.914;73.444;2023-05-10T05:15:53;18.80;;;11.25;;
73823;SDS011;62154;54.914;73.444;2023-05-10T05:18:20;16.83;;;10.88;;
73823;SDS011;62154;54.914;73.444;2023-05-10T05:20:47;17.92;;;11.65;;
73823;SDS011;62154;54.914;73.444;2023-05-10T05:23:14;17.00;;;11.32;;
73823;SDS011;62154;54.914;73.444;2023-05-10T05:25:41;17.80;;;11.55;;
73823;SDS011;62154;54.914;73.444;2023-05-10T05:28:08;15.38;;;8.77;;
73823;SDS011;62154;54.914;73.444;2023-05-10T05:30:35;15.13;;;9.85;;
73823;SDS011;62154;54.914;73.444;2023-05-10T05:33:03;18.67;;;10.50;;
73823;SDS011;62154;54.914;73.444;2023-05-10T05:35:30;19.10;;;10.65;;
73823;SDS011;62154;54.914;73.444;2023-05-10T05:37:57;17.33;;;11.70;;
73823;SDS011;62154;54.914;73.444;2023-05-10T05:40:24;18.35;;;10.35;;
73823;SDS011;62154;54.914;73.444;2023-05-10T05:42:51;15.43;;;11.13;;
73823;SDS011;62154;54.914;73.444;2023-05-10T05:45:18;15.90;;;10.90;;
73823;SDS011;62154;54.914;73.444;2023-05-10T05:47:45;19.30;;;10.73;;
73823;SDS011;62154;54.914;73.444;2023-05-10T05:50:13;18.60;;;10.30;;
73823;SDS011;62154;54.914;73.444;2023-05-10T05:52:39;18.27;;;10.23;;
73823;SDS011;62154;54.914;73.444;2023-05-10T05:55:07;12.88;;;9.57;;
73823;SDS011;62154;54.914;73.444;2023-05-10T05:57:34;14.88;;;10.23;;
73823;SDS011;62154;54.914;73.444;2023-05-10T06:00:01;15.70;;;9.67;;
73823;SDS011;62154;54.914;73.444;2023-05-10T06:02:39;12.73;;;9.15;;
73823;SDS011;62154;54.914;73.444;2023-05-10T06:05:06;16.95;;;10.30;;
73823;SDS011;62154;54.914;73.444;2023-05-10T06:07:34;18.90;;;10.63;;
73823;SDS011;62154;54.914;73.444;2023-05-10T06:10:01;20.55;;;9.93;;
73823;SDS011;62154;54.914;73.444;2023-05-10T06:12:30;14.30;;;9.23;;
73823;SDS011;62154;54.914;73.444;2023-05-10T06:14:59;17.48;;;9.77;;
73823;SDS011;62154;54.914;73.444;2023-05-10T06:17:26;17.05;;;10.13;;
73823;SDS011;62154;54.914;73.444;2023-05-10T06:19:54;16.08;;;10.20;;
73823;SDS011;62154;54.914;73.444;2023-05-10T06:22:22;20.33;;;10.85;;
73823;SDS011;62154;54.914;73.444;2023-05-10T06:24:49;22.60;;;10.35;;
73823;SDS011;62154;54.914;73.444;2023-05-10T06:27:16;17.58;;;9.70;;
73823;SDS011;62154;54.914;73.444;2023-05-10T06:29:43;14.33;;;9.70;;
73823;SDS011;62154;54.914;73.444;2023-05-10T06:32:10;14.98;;;9.77;;
73823;SDS011;62154;54.914;73.444;2023-05-10T06:34:38;20.58;;;9.63;;
73823;SDS011;62154;54.914;73.444;2023-05-10T06:37:04;13.27;;;9.63;;
73823;SDS011;62154;54.914;73.444;2023-05-10T06:39:32;13.57;;;9.13;;
73823;SDS011;62154;54.914;73.444;2023-05-10T06:41:59;17.05;;;9.20;;
73823;SDS011;62154;54.914;73.444;2023-05-10T06:44:32;21.77;;;10.15;;
73823;SDS011;62154;54.914;73.444;2023-05-10T06:46:59;26.25;;;11.82;;
73823;SDS011;62154;54.914;73.444;2023-05-10T06:49:26;17.13;;;9.30;;
73823;SDS011;62154;54.914;73.444;2023-05-10T06:51:53;14.90;;;9.17;;
73823;SDS011;62154;54.914;73.444;2023-05-10T06:54:20;15.45;;;9.18;;
73823;SDS011;62154;54.914;73.444;2023-05-10T06:56:47;14.50;;;9.05;;
73823;SDS011;62154;54.914;73.444;2023-05-10T06:59:14;18.02;;;10.23;;
73823;SDS011;62154;54.914;73.444;2023-05-10T07:01:43;17.38;;;8.82;;
73823;SDS011;62154;54.914;73.444;2023-05-10T07:04:11;16.05;;;8.60;;
73823;SDS011;62154;54.914;73.444;2023-05-10T07:06:38;17.63;;;9.88;;
73823;SDS011;62154;54.914;73.444;2023-05-10T07:09:05;19.00;;;9.18;;
73823;SDS011;62154;54.914;73.444;2023-05-10T07:11:32;16.90;;;9.45;;
73823;SDS011;62154;54.914;73.444;2023-05-10T07:13:59;15.43;;;9.15;;
73823;SDS011;62154;54.914;73.444;2023-05-10T07:16:26;16.55;;;8.85;;
73823;SDS011;62154;54.914;73.444;2023-05-10T07:18:53;17.08;;;9.60;;
73823;SDS011;62154;54.914;73.444;2023-05-10T07:21:20;14.13;;;8.30;;
73823;SDS011;62154;54.914;73.444;2023-05-10T07:23:50;16.70;;;8.80;;
73823;SDS011;62154;54.914;73.444;2023-05-10T07:26:17;19.33;;;8.80;;
73823;SDS011;62154;54.914;73.444;2023-05-10T07:28:45;15.73;;;8.80;;
73823;SDS011;62154;54.914;73.444;2023-05-10T07:31:12;12.65;;;8.88;;
73823;SDS011;62154;54.914;73.444;2023-05-10T07:33:41;12.30;;;7.95;;
73823;SDS011;62154;54.914;73.444;2023-05-10T07:36:08;13.68;;;8.80;;
73823;SDS011;62154;54.914;73.444;2023-05-10T07:38:35;13.10;;;8.10;;
73823;SDS011;62154;54.914;73.444;2023-05-10T07:41:02;12.68;;;8.13;;
73823;SDS011;62154;54.914;73.444;2023-05-10T07:43:29;16.17;;;8.55;;
73823;SDS011;62154;54.914;73.444;2023-05-10T07:45:56;20.63;;;9.40;;
73823;SDS011;62154;54.914;73.444;2023-05-10T07:48:26;14.50;;;8.68;;
73823;SDS011;62154;54.914;73.444;2023-05-10T07:50:53;24.58;;;9.50;;
73823;SDS011;62154;54.914;73.444;2023-05-10T07:53:20;14.38;;;9.10;;
73823;SDS011;62154;54.914;73.444;2023-05-10T07:55:50;19.38;;;9.95;;
73823;SDS011;62154;54.914;73.444;2023-05-10T07:58:18;11.65;;;8.27;;
73823;SDS011;62154;54.914;73.444;2023-05-10T08:00:45;15.20;;;8.05;;
73823;SDS011;62154;54.914;73.444;2023-05-10T08:03:12;10.98;;;8.48;;
73823;SDS011;62154;54.914;73.444;2023-05-10T08:05:39;13.90;;;8.82;;
73823;SDS011;62154;54.914;73.444;2023-05-10T08:08:06;11.57;;;8.63;;
73823;SDS011;62154;54.914;73.444;2023-05-10T08:10:33;11.25;;;7.45;;
73823;SDS011;62154;54.914;73.444;2023-05-10T08:13:00;13.93;;;8.57;;
73823;SDS011;62154;54.914;73.444;2023-05-10T08:15:28;14.25;;;7.72;;
73823;SDS011;62154;54.914;73.444;2023-05-10T08:17:55;20.80;;;8.50;;
73823;SDS011;62154;54.914;73.444;2023-05-10T08:20:22;12.45;;;7.32;;
73823;SDS011;62154;54.914;73.444;2023-05-10T08:22:49;18.42;;;8.63;;
73823;SDS011;62154;54.914;73.444;2023-05-10T08:25:16;13.25;;;7.47;;
73823;SDS011;62154;54.914;73.444;2023-05-10T08:27:43;15.70;;;8.30;;
73823;SDS011;62154;54.914;73.444;2023-05-10T08:30:11;14.38;;;7.15;;
73823;SDS011;62154;54.914;73.444;2023-05-10T08:32:39;11.98;;;6.75;;
73823;SDS011;62154;54.914;73.444;2023-05-10T08:35:06;13.45;;;7.57;;
73823;SDS011;62154;54.914;73.444;2023-05-10T08:37:33;13.48;;;6.50;;
73823;SDS011;62154;54.914;73.444;2023-05-10T08:40:07;11.73;;;7.30;;
73823;SDS011;62154;54.914;73.444;2023-05-10T08:42:36;11.23;;;7.30;;
73823;SDS011;62154;54.914;73.444;2023-05-10T08:45:10;12.02;;;7.43;;
73823;SDS011;62154;54.914;73.444;2023-05-10T08:47:38;12.30;;;7.00;;
73823;SDS011;62154;54.914;73.444;2023-05-10T08:50:06;12.73;;;7.25;;
73823;SDS011;62154;54.914;73.444;2023-05-10T08:52:33;12.45;;;7.43;;
73823;SDS011;62154;54.914;73.444;2023-05-10T08:55:05;12.25;;;7.57;;
73823;SDS011;62154;54.914;73.444;2023-05-10T08:57:32;12.52;;;8.00;;
73823;SDS011;62154;54.914;73.444;2023-05-10T09:00:00;14.07;;;7.30;;
73823;SDS011;62154;54.914;73.444;2023-05-10T09:02:30;10.38;;;7.30;;
73823;SDS011;62154;54.914;73.444;2023-05-10T09:04:58;11.95;;;7.82;;
73823;SDS011;62154;54.914;73.444;2023-05-10T09:07:25;13.15;;;7.32;;
73823;SDS011;62154;54.914;73.444;2023-05-10T09:09:52;13.52;;;7.70;;
73823;SDS011;62154;54.914;73.444;2023-05-10T09:12:19;13.52;;;7.65;;
73823;SDS011;62154;54.914;73.444;2023-05-10T09:14:47;14.43;;;9.15;;
73823;SDS011;62154;54.914;73.444;2023-05-10T09:17:15;52.53;;;32.40;;
73823;SDS011;62154;54.914;73.444;2023-05-10T09:19:42;30.45;;;20.00;;
73823;SDS011;62154;54.914;73.444;2023-05-10T09:22:09;110.28;;;60.53;;
73823;SDS011;62154;54.914;73.444;2023-05-10T09:24:38;13.05;;;7.80;;
73823;SDS011;62154;54.914;73.444;2023-05-10T09:27:08;16.27;;;7.30;;
73823;SDS011;62154;54.914;73.444;2023-05-10T09:29:39;11.82;;;7.35;;
73823;SDS011;62154;54.914;73.444;2023-05-10T09:32:07;16.27;;;7.63;;
73823;SDS011;62154;54.914;73.444;2023-05-10T09:34:34;13.95;;;7.32;;
73823;SDS011;62154;54.914;73.444;2023-05-10T09:37:02;13.63;;;7.38;;
73823;SDS011;62154;54.914;73.444;2023-05-10T09:39:34;13.23;;;6.93;;
73823;SDS011;62154;54.914;73.444;2023-05-10T09:42:03;15.73;;;7.03;;
73823;SDS011;62154;54.914;73.444;2023-05-10T09:44:31;11.60;;;7.95;;
73823;SDS011;62154;54.914;73.444;2023-05-10T09:46:58;12.25;;;6.82;;
73823;SDS011;62154;54.914;73.444;2023-05-10T09:49:25;15.25;;;8.18;;
73823;SDS011;62154;54.914;73.444;2023-05-10T09:52:05;11.57;;;6.75;;
73823;SDS011;62154;54.914;73.444;2023-05-10T09:54:33;12.43;;;6.10;;
73823;SDS011;62154;54.914;73.444;2023-05-10T09:57:00;20.17;;;6.82;;
73823;SDS011;62154;54.914;73.444;2023-05-10T09:59:28;13.73;;;6.53;;
73823;SDS011;62154;54.914;73.444;2023-05-10T10:01:56;10.50;;;6.13;;
73823;SDS011;62154;54.914;73.444;2023-05-10T10:04:23;9.65;;;6.10;;
73823;SDS011;62154;54.914;73.444;2023-05-10T10:07:03;16.23;;;6.38;;
73823;SDS011;62154;54.914;73.444;2023-05-10T10:09:31;13.68;;;6.63;;
73823;SDS011;62154;54.914;73.444;2023-05-10T10:12:02;10.87;;;6.17;;
73823;SDS011;62154;54.914;73.444;2023-05-10T10:14:29;7.30;;;5.80;;
73823;SDS011;62154;54.914;73.444;2023-05-10T10:16:56;11.25;;;5.88;;
73823;SDS011;62154;54.914;73.444;2023-05-10T10:19:24;11.63;;;6.45;;
73823;SDS011;62154;54.914;73.444;2023-05-10T10:21:54;12.90;;;6.51;;
73823;SDS011;62154;54.914;73.444;2023-05-10T10:24:21;26.75;;;7.80;;
73823;SDS011;62154;54.914;73.444;2023-05-10T10:26:48;13.45;;;6.38;;
73823;SDS011;62154;54.914;73.444;2023-05-10T10:31:46;11.13;;;5.43;;
73823;SDS011;62154;54.914;73.444;2023-05-10T10:34:26;13.00;;;6.20;;
73823;SDS011;62154;54.914;73.444;2023-05-10T10:36:57;13.65;;;5.85;;
73823;SDS011;62154;54.914;73.444;2023-05-10T10:39:24;14.43;;;6.47;;
73823;SDS011;62154;54.914;73.444;2023-05-10T10:41:54;12.55;;;6.18;;
73823;SDS011;62154;54.914;73.444;2023-05-10T10:44:22;13.75;;;6.20;;
73823;SDS011;62154;54.914;73.444;2023-05-10T10:47:10;26.30;;;6.72;;
73823;SDS011;62154;54.914;73.444;2023-05-10T10:52:27;16.40;;;6.40;;
73823;SDS011;62154;54.914;73.444;2023-05-10T10:55:00;13.55;;;6.10;;
73823;SDS011;62154;54.914;73.444;2023-05-10T10:57:42;9.38;;;5.50;;
73823;SDS011;62154;54.914;73.444;2023-05-10T11:00:22;11.23;;;5.22;;
73823;SDS011;62154;54.914;73.444;2023-05-10T11:02:51;12.25;;;5.13;;
73823;SDS011;62154;54.914;73.444;2023-05-10T11:07:58;11.20;;;5.25;;
73823;SDS011;62154;54.914;73.444;2023-05-10T11:10:26;10.02;;;5.60;;
73823;SDS011;62154;54.914;73.444;2023-05-10T11:13:09;7.50;;;4.63;;
73823;SDS011;62154;54.914;73.444;2023-05-10T11:15:39;7.03;;;5.07;;
73823;SDS011;62154;54.914;73.444;2023-05-10T11:20:52;14.25;;;6.18;;
73823;SDS011;62154;54.914;73.444;2023-05-10T11:23:22;11.35;;;4.93;;
73823;SDS011;62154;54.914;73.444;2023-05-10T11:25:51;13.30;;;5.53;;
73823;SDS011;62154;54.914;73.444;2023-05-10T11:28:18;13.57;;;5.15;;
73823;SDS011;62154;54.914;73.444;2023-05-10T11:30:45;10.38;;;5.00;;
73823;SDS011;62154;54.914;73.444;2023-05-10T11:33:16;11.13;;;4.80;;
73823;SDS011;62154;54.914;73.444;2023-05-10T11:35:44;10.57;;;5.30;;
73823;SDS011;62154;54.914;73.444;2023-05-10T11:38:11;15.93;;;9.25;;
73823;SDS011;62154;54.914;73.444;2023-05-10T11:40:39;13.00;;;5.15;;
73823;SDS011;62154;54.914;73.444;2023-05-10T11:43:08;10.95;;;5.03;;
73823;SDS011;62154;54.914;73.444;2023-05-10T11:45:36;18.33;;;12.65;;
73823;SDS011;62154;54.914;73.444;2023-05-10T11:48:04;11.15;;;5.50;;
73823;SDS011;62154;54.914;73.444;2023-05-10T11:50:31;7.60;;;4.18;;
73823;SDS011;62154;54.914;73.444;2023-05-10T11:52:59;8.93;;;3.70;;
73823;SDS011;62154;54.914;73.444;2023-05-10T11:55:26;9.05;;;4.10;;
73823;SDS011;62154;54.914;73.444;2023-05-10T11:57:53;8.82;;;4.10;;
73823;SDS011;62154;54.914;73.444;2023-05-10T12:00:21;8.85;;;4.32;;
73823;SDS011;62154;54.914;73.444;2023-05-10T12:02:48;8.98;;;3.70;;
73823;SDS011;62154;54.914;73.444;2023-05-10T12:05:16;17.05;;;5.07;;
73823;SDS011;62154;54.914;73.444;2023-05-10T12:07:43;15.90;;;7.90;;
73823;SDS011;62154;54.914;73.444;2023-05-10T12:10:12;21.83;;;4.90;;
73823;SDS011;62154;54.914;73.444;2023-05-10T12:12:44;12.15;;;4.45;;
73823;SDS011;62154;54.914;73.444;2023-05-10T12:15:12;13.88;;;6.13;;
73823;SDS011;62154;54.914;73.444;2023-05-10T12:17:39;18.27;;;10.27;;
73823;SDS011;62154;54.914;73.444;2023-05-10T12:23:00;15.26;;;9.60;;
73823;SDS011;62154;54.914;73.444;2023-05-10T12:25:30;8.45;;;5.65;;
73823;SDS011;62154;54.914;73.444;2023-05-10T12:27:59;9.88;;;5.10;;
73823;SDS011;62154;54.914;73.444;2023-05-10T12:30:31;10.25;;;4.22;;
73823;SDS011;62154;54.914;73.444;2023-05-10T12:33:01;8.40;;;4.20;;
73823;SDS011;62154;54.914;73.444;2023-05-10T12:35:30;9.07;;;3.95;;
73823;SDS011;62154;54.914;73.444;2023-05-10T12:37:57;14.50;;;4.72;;
73823;SDS011;62154;54.914;73.444;2023-05-10T12:40:25;10.70;;;4.40;;
73823;SDS011;62154;54.914;73.444;2023-05-10T12:42:52;8.98;;;4.32;;
73823;SDS011;62154;54.914;73.444;2023-05-10T12:45:19;8.38;;;4.80;;
73823;SDS011;62154;54.914;73.444;2023-05-10T12:47:46;8.75;;;4.20;;
73823;SDS011;62154;54.914;73.444;2023-05-10T12:50:13;10.05;;;4.13;;
73823;SDS011;62154;54.914;73.444;2023-05-10T12:52:45;20.67;;;4.75;;
73823;SDS011;62154;54.914;73.444;2023-05-10T12:55:13;10.20;;;4.07;;
73823;SDS011;62154;54.914;73.444;2023-05-10T12:57:39;15.43;;;4.95;;
73823;SDS011;62154;54.914;73.444;2023-05-10T13:00:07;11.02;;;4.20;;
73823;SDS011;62154;54.914;73.444;2023-05-10T13:02:34;18.45;;;4.75;;
73823;SDS011;62154;54.914;73.444;2023-05-10T13:05:01;11.73;;;3.88;;
73823;SDS011;62154;54.914;73.444;2023-05-10T13:07:29;11.60;;;3.97;;
73823;SDS011;62154;54.914;73.444;2023-05-10T13:09:56;13.80;;;4.40;;
73823;SDS011;62154;54.914;73.444;2023-05-10T13:12:23;9.68;;;4.40;;
73823;SDS011;62154;54.914;73.444;2023-05-10T13:14:50;15.13;;;4.32;;
73823;SDS011;62154;54.914;73.444;2023-05-10T13:17:17;9.10;;;3.83;;
73823;SDS011;62154;54.914;73.444;2023-05-10T13:19:44;8.93;;;4.07;;
73823;SDS011;62154;54.914;73.444;2023-05-10T13:22:11;8.48;;;4.40;;
73823;SDS011;62154;54.914;73.444;2023-05-10T13:24:39;13.27;;;4.32;;
73823;SDS011;62154;54.914;73.444;2023-05-10T13:27:07;14.13;;;4.68;;
73823;SDS011;62154;54.914;73.444;2023-05-10T13:29:34;10.68;;;4.90;;
73823;SDS011;62154;54.914;73.444;2023-05-10T13:32:01;12.77;;;4.45;;
73823;SDS011;62154;54.914;73.444;2023-05-10T13:34:28;16.05;;;4.80;;
73823;SDS011;62154;54.914;73.444;2023-05-10T13:36:55;14.18;;;5.10;;
73823;SDS011;62154;54.914;73.444;2023-05-10T13:39:22;12.13;;;4.53;;
73823;SDS011;62154;54.914;73.444;2023-05-10T13:41:49;12.93;;;5.07;;
73823;SDS011;62154;54.914;73.444;2023-05-10T13:44:16;14.23;;;4.72;;
73823;SDS011;62154;54.914;73.444;2023-05-10T13:46:43;10.23;;;4.60;;
73823;SDS011;62154;54.914;73.444;2023-05-10T13:49:10;12.48;;;6.57;;
73823;SDS011;62154;54.914;73.444;2023-05-10T13:51:37;13.18;;;5.40;;
73823;SDS011;62154;54.914;73.444;2023-05-10T13:54:04;49.30;;;44.37;;
73823;SDS011;62154;54.914;73.444;2023-05-10T13:56:32;17.98;;;6.47;;
73823;SDS011;62154;54.914;73.444;2023-05-10T13:58:59;13.90;;;5.05;;
73823;SDS011;62154;54.914;73.444;2023-05-10T14:01:26;10.82;;;4.55;;
73823;SDS011;62154;54.914;73.444;2023-05-10T14:03:53;13.10;;;4.70;;
73823;SDS011;62154;54.914;73.444;2023-05-10T14:06:21;11.07;;;5.18;;
73823;SDS011;62154;54.914;73.444;2023-05-10T14:08:48;19.67;;;5.40;;
73823;SDS011;62154;54.914;73.444;2023-05-10T14:11:15;12.90;;;4.85;;
73823;SDS011;62154;54.914;73.444;2023-05-10T14:13:42;25.92;;;6.07;;
73823;SDS011;62154;54.914;73.444;2023-05-10T14:16:11;23.50;;;8.20;;
73823;SDS011;62154;54.914;73.444;2023-05-10T14:18:41;18.42;;;8.30;;
73823;SDS011;62154;54.914;73.444;2023-05-10T14:21:08;33.30;;;13.23;;
73823;SDS011;62154;54.914;73.444;2023-05-10T14:23:35;27.38;;;11.65;;
73823;SDS011;62154;54.914;73.444;2023-05-10T14:26:02;34.70;;;13.30;;
73823;SDS011;62154;54.914;73.444;2023-05-10T14:28:29;34.92;;;12.98;;
73823;SDS011;62154;54.914;73.444;2023-05-10T14:30:57;31.08;;;12.27;;
73823;SDS011;62154;54.914;73.444;2023-05-10T14:33:24;27.45;;;12.38;;
73823;SDS011;62154;54.914;73.444;2023-05-10T14:35:53;36.88;;;12.38;;
73823;SDS011;62154;54.914;73.444;2023-05-10T14:38:23;32.22;;;12.75;;
73823;SDS011;62154;54.914;73.444;2023-05-10T14:40:51;34.25;;;13.75;;
73823;SDS011;62154;54.914;73.444;2023-05-10T14:43:18;33.42;;;13.57;;
73823;SDS011;62154;54.914;73.444;2023-05-10T14:45:46;37.67;;;13.33;;
73823;SDS011;62154;54.914;73.444;2023-05-10T14:48:14;67.78;;;14.20;;
73823;SDS011;62154;54.914;73.444;2023-05-10T14:50:44;34.15;;;14.40;;
73823;SDS011;62154;54.914;73.444;2023-05-10T14:53:12;35.17;;;15.43;;
73823;SDS011;62154;54.914;73.444;2023-05-10T14:55:39;43.42;;;16.77;;
73823;SDS011;62154;54.914;73.444;2023-05-10T14:58:06;49.85;;;19.00;;
73823;SDS011;62154;54.914;73.444;2023-05-10T15:00:33;45.67;;;20.35;;